Time;durP1;ratioP1;P1;durP2;ratioP2;P2;SDS_P1;SDS_P2;PMS_P1;PMS_P2;Temp;Humidity;BMP_temperature;BMP_pressure;BME280_temperature;BME280_humidity;BME280_pressure;Samples;Min_cycle;Max_cycle;Signal;HPM_P1;HPM_P2
2022/08/01 00:00:37;;;;;;;3.67;3.33;;;29.20;1.00;;;;;;5112300;28;20102;-45
2022/08/01 00:03:03;;;;;;;4.15;3.00;;;29.20;1.00;;;;;;5113336;28;20434;-45
2022/08/01 00:05:29;;;;;;;2.80;2.60;;;29.20;1.00;;;;;;5112282;28;20042;-46
2022/08/01 00:07:54;;;;;;;3.22;3.00;;;29.20;1.00;;;;;;5113288;28;20419;-45
2022/08/01 00:10:20;;;;;;;4.47;3.38;;;29.10;1.00;;;;;;5111992;28;20019;-46
2022/08/01 00:12:46;;;;;;;4.78;3.10;;;29.20;1.00;;;;;;5112975;28;20381;-46
2022/08/01 00:15:14;;;;;;;4.45;3.10;;;29.10;1.00;;;;;;5112640;28;20389;-45
2022/08/01 00:17:41;;;;;;;3.95;2.90;;;29.10;1.00;;;;;;5112750;28;20027;-47
2022/08/01 00:20:09;;;;;;;3.22;2.70;;;29.10;1.00;;;;;;5112845;28;20028;-47
2022/08/01 00:22:34;;;;;;;4.13;2.72;;;29.10;1.00;;;;;;5111465;28;20035;-46
2022/08/01 00:25:00;;;;;;;2.88;2.63;;;29.00;1.00;;;;;;5093852;28;20370;-46
2022/08/01 00:27:26;;;;;;;3.03;2.80;;;29.00;1.00;;;;;;5112117;28;20027;-46
2022/08/01 00:29:52;;;;;;;4.55;2.88;;;28.90;1.00;;;;;;5112799;28;20015;-46
2022/08/01 00:32:18;;;;;;;4.50;3.15;;;28.90;1.00;;;;;;5111219;28;20392;-48
2022/08/01 00:34:43;;;;;;;4.43;2.85;;;28.90;1.00;;;;;;5112563;28;20497;-46
2022/08/01 00:37:09;;;;;;;3.42;2.95;;;28.90;1.00;;;;;;5111768;28;20126;-45
2022/08/01 00:39:35;;;;;;;6.55;3.20;;;28.80;1.00;;;;;;5112550;28;20019;-47
2022/08/01 00:42:07;;;;;;;4.38;3.10;;;28.80;1.00;;;;;;5100668;28;20043;-46
2022/08/01 00:44:33;;;;;;;3.25;2.47;;;28.80;1.00;;;;;;5092887;28;20353;-47
2022/08/01 00:46:59;;;;;;;2.97;2.60;;;28.80;1.00;;;;;;5093520;28;20088;-45
2022/08/01 00:49:24;;;;;;;4.28;2.63;;;28.80;1.00;;;;;;5093767;28;20497;-45
2022/08/01 00:51:50;;;;;;;4.05;2.78;;;28.80;1.00;;;;;;5111923;28;20032;-46
2022/08/01 00:54:16;;;;;;;4.60;3.45;;;28.70;1.00;;;;;;5111815;28;20035;-46
2022/08/01 00:56:41;;;;;;;3.88;2.58;;;28.70;1.00;;;;;;5111720;28;20050;-46
2022/08/01 00:59:08;;;;;;;8.52;2.72;;;28.60;1.00;;;;;;5112338;28;20515;-46
2022/08/01 01:01:34;;;;;;;4.53;2.80;;;28.60;1.00;;;;;;5111323;28;20042;-45
2022/08/01 01:04:00;;;;;;;2.90;2.70;;;28.60;1.00;;;;;;5112281;28;20110;-47
2022/08/01 01:06:34;;;;;;;3.65;2.72;;;28.60;1.00;;;;;;5108306;28;20095;-47
2022/08/01 01:09:19;;;;;;;4.47;2.88;;;28.60;1.00;;;;;;5108498;28;20063;-46
2022/08/01 01:12:29;;;;;;;5.22;2.85;;;28.60;1.00;;;;;;5111777;28;20038;-46
2022/08/01 01:15:06;;;;;;;5.85;2.85;;;28.60;1.00;;;;;;5101388;28;20365;-46
2022/08/01 01:17:57;;;;;;;3.17;2.88;;;28.50;1.00;;;;;;5111307;28;20030;-49
2022/08/01 01:20:32;;;;;;;5.22;2.70;;;28.50;1.00;;;;;;5111622;28;20023;-46
2022/08/01 01:23:34;;;;;;;3.45;2.50;;;28.50;1.00;;;;;;5110872;28;20093;-47
2022/08/01 01:26:04;;;;;;;5.20;3.10;;;28.50;1.00;;;;;;5108601;28;20035;-48
2022/08/01 01:29:05;;;;;;;4.50;2.88;;;28.40;1.00;;;;;;5099448;28;20353;-48
2022/08/01 01:31:36;;;;;;;3.10;2.58;;;28.40;1.00;;;;;;5065570;28;20089;-49
2022/08/01 01:34:04;;;;;;;4.45;3.08;;;28.40;1.00;;;;;;5111386;28;20132;-48
2022/08/01 01:36:32;;;;;;;4.57;3.33;;;28.40;1.00;;;;;;5110542;28;20538;-50
2022/08/01 01:38:58;;;;;;;3.15;2.85;;;28.40;1.00;;;;;;5111180;28;20102;-49
2022/08/01 01:41:25;;;;;;;3.30;3.00;;;28.40;1.00;;;;;;5110157;28;20082;-47
2022/08/01 01:43:52;;;;;;;4.05;3.25;;;28.40;1.00;;;;;;5111140;28;20119;-49
2022/08/01 01:46:22;;;;;;;4.53;3.45;;;28.40;1.00;;;;;;5110503;28;20073;-48
2022/08/01 01:48:50;;;;;;;6.47;3.20;;;28.30;1.00;;;;;;5111054;28;20612;-49
2022/08/01 01:51:17;;;;;;;6.38;3.10;;;28.30;1.00;;;;;;5110288;28;20035;-46
2022/08/01 01:53:44;;;;;;;3.38;3.08;;;28.30;1.00;;;;;;5095594;28;20112;-49
2022/08/01 01:56:13;;;;;;;5.70;3.60;;;28.20;1.00;;;;;;5114051;28;20054;-46
2022/08/01 01:58:39;;;;;;;4.07;3.30;;;28.20;1.00;;;;;;5114817;28;20499;-47
2022/08/01 02:01:06;;;;;;;5.75;2.80;;;28.20;1.00;;;;;;5114252;28;20023;-46
2022/08/01 02:03:36;;;;;;;6.28;2.97;;;28.10;1.00;;;;;;5114590;28;20031;-44
2022/08/01 02:06:02;;;;;;;4.00;2.90;;;28.10;1.00;;;;;;5113402;28;20016;-47
2022/08/01 02:08:29;;;;;;;4.35;3.05;;;28.10;1.00;;;;;;5114031;28;20035;-45
2022/08/01 02:13:41;;;;;;;3.40;3.10;;;28.00;1.00;;;;;;5102017;28;20861;-44
2022/08/01 02:16:10;;;;;;;5.00;3.22;;;28.00;1.00;;;;;;5114000;28;20174;-46
2022/08/01 02:18:37;;;;;;;5.70;3.38;;;28.00;1.00;;;;;;5102068;28;20396;-46
2022/08/01 02:21:08;;;;;;;3.33;3.03;;;28.00;1.00;;;;;;5110229;28;20132;-44
2022/08/01 02:23:35;;;;;;;3.47;3.03;;;27.90;1.00;;;;;;5112178;28;20039;-46
2022/08/01 02:26:08;;;;;;;7.50;3.25;;;28.00;1.00;;;;;;5113825;28;20028;-45
2022/08/01 02:28:40;;;;;;;3.95;3.55;;;28.00;1.00;;;;;;5114956;28;20034;-45
2022/08/01 02:31:11;;;;;;;5.28;3.35;;;27.90;1.00;;;;;;5113954;28;20030;-47
2022/08/01 02:33:39;;;;;;;3.53;3.17;;;27.90;1.00;;;;;;5114509;28;20039;-45
2022/08/01 02:36:07;;;;;;;4.40;3.67;;;27.90;1.00;;;;;;5113623;28;20098;-46
2022/08/01 02:38:37;;;;;;;3.13;2.83;;;27.90;1.00;;;;;;5114387;28;20024;-50
2022/08/01 02:41:08;;;;;;;3.92;2.70;;;27.90;1.00;;;;;;5113657;28;20447;-46
2022/08/01 02:43:39;;;;;;;3.38;3.08;;;27.80;1.00;;;;;;5113977;28;20039;-46
2022/08/01 02:46:08;;;;;;;3.55;2.88;;;27.80;1.00;;;;;;5113264;28;20107;-47
2022/08/01 02:48:36;;;;;;;5.78;3.25;;;27.80;1.00;;;;;;5114433;28;20023;-45
2022/08/01 02:51:03;;;;;;;3.00;2.70;;;27.70;1.00;;;;;;5113273;28;20016;-44
2022/08/01 02:53:56;;;;;;;4.90;2.92;;;27.80;1.00;;;;;;5113231;28;20043;-44
2022/08/01 02:56:24;;;;;;;3.72;2.50;;;27.70;1.00;;;;;;5113193;28;20035;-45
2022/08/01 02:58:51;;;;;;;5.07;3.00;;;27.70;1.00;;;;;;5113688;28;20012;-49
2022/08/01 03:01:19;;;;;;;5.93;2.90;;;27.70;1.00;;;;;;5112925;28;20110;-45
2022/08/01 03:03:45;;;;;;;2.85;2.65;;;27.60;1.00;;;;;;5096447;28;20513;-44
2022/08/01 03:06:12;;;;;;;3.05;2.60;;;27.60;1.00;;;;;;5101081;28;20515;-45
2022/08/01 03:08:39;;;;;;;2.72;2.53;;;27.60;1.00;;;;;;5094018;28;20035;-44
2022/08/01 03:11:06;;;;;;;4.82;2.67;;;27.60;1.00;;;;;;5112519;28;20027;-44
2022/08/01 03:13:33;;;;;;;4.57;3.03;;;27.60;1.00;;;;;;5113124;28;20053;-43
2022/08/01 03:16:00;;;;;;;4.80;3.33;;;27.50;1.00;;;;;;5100201;28;20434;-43
2022/08/01 03:18:28;;;;;;;3.22;2.90;;;27.50;1.00;;;;;;5114127;28;20525;-45
2022/08/01 03:20:55;;;;;;;5.88;2.80;;;27.50;1.00;;;;;;5113304;28;20076;-43
2022/08/01 03:23:22;;;;;;;4.20;2.83;;;27.50;1.00;;;;;;5112355;28;20031;-44
2022/08/01 03:25:51;;;;;;;3.42;2.38;;;27.50;1.00;;;;;;5113273;28;20477;-44
2022/08/01 03:28:18;;;;;;;3.22;2.50;;;27.50;1.00;;;;;;5114105;28;20019;-45
2022/08/01 03:30:45;;;;;;;3.53;2.40;;;27.40;1.00;;;;;;5113322;28;20027;-44
2022/08/01 03:33:11;;;;;;;4.38;2.70;;;27.40;1.00;;;;;;5113863;28;20042;-45
2022/08/01 03:35:42;;;;;;;2.97;2.78;;;27.40;1.00;;;;;;5112707;28;20381;-44
2022/08/01 03:38:10;;;;;;;4.00;2.60;;;27.40;1.00;;;;;;5113901;28;20108;-44
2022/08/01 03:40:39;;;;;;;3.60;3.17;;;27.40;1.00;;;;;;5112776;28;20027;-46
2022/08/01 03:43:26;;;;;;;3.25;2.33;;;27.30;1.00;;;;;;5113361;28;20044;-44
2022/08/01 03:45:53;;;;;;;4.72;2.85;;;27.30;1.00;;;;;;5112798;28;20100;-44
2022/08/01 03:48:26;;;;;;;3.88;2.65;;;27.30;1.00;;;;;;5113712;28;20029;-45
2022/08/01 03:50:52;;;;;;;4.03;2.35;;;27.30;1.00;;;;;;5111113;28;20024;-44
2022/08/01 03:53:22;;;;;;;4.85;2.85;;;27.30;1.00;;;;;;5113363;28;20114;-46
2022/08/01 03:55:49;;;;;;;6.40;2.85;;;27.30;1.00;;;;;;5112765;28;20023;-45
2022/08/01 03:58:16;;;;;;;4.60;3.15;;;27.30;1.00;;;;;;5113398;28;20047;-46
2022/08/01 04:00:42;;;;;;;2.92;2.45;;;27.30;1.00;;;;;;5112607;28;20027;-48
2022/08/01 04:03:08;;;;;;;3.05;2.80;;;27.20;1.00;;;;;;5112506;28;20024;-46
2022/08/01 04:05:35;;;;;;;2.65;2.45;;;27.20;1.00;;;;;;5112776;28;20115;-46
2022/08/01 04:08:02;;;;;;;2.80;2.60;;;27.20;1.00;;;;;;5111131;28;20016;-46
2022/08/01 04:10:29;;;;;;;3.70;2.60;;;27.20;1.00;;;;;;5112518;28;20024;-45
2022/08/01 04:12:55;;;;;;;4.13;2.72;;;27.20;1.00;;;;;;5112551;28;20035;-44
2022/08/01 04:15:20;;;;;;;4.97;2.60;;;27.20;1.00;;;;;;5112010;28;20077;-46
2022/08/01 04:17:47;;;;;;;3.70;2.63;;;27.20;1.00;;;;;;5094450;28;20032;-45
2022/08/01 04:20:13;;;;;;;3.80;2.50;;;27.20;1.00;;;;;;5111745;28;20422;-47
2022/08/01 04:22:39;;;;;;;5.95;2.58;;;27.20;1.00;;;;;;5094273;28;20103;-44
2022/08/01 04:25:10;;;;;;;3.10;2.65;;;27.20;1.00;;;;;;5113042;28;20039;-44
2022/08/01 04:27:39;;;;;;;2.95;2.35;;;27.20;1.00;;;;;;5112127;28;20020;-44
2022/08/01 04:30:06;;;;;;;5.03;2.22;;;27.20;1.00;;;;;;5112816;28;20062;-44
2022/08/01 04:32:35;;;;;;;2.40;2.30;;;27.20;1.00;;;;;;5111874;28;20012;-44
2022/08/01 04:35:05;;;;;;;4.72;2.30;;;27.10;1.00;;;;;;5112920;28;20035;-44
2022/08/01 04:37:30;;;;;;;4.90;2.45;;;27.10;1.00;;;;;;5111793;28;20164;-45
2022/08/01 04:39:59;;;;;;;5.57;3.00;;;27.10;1.00;;;;;;5112536;28;20027;-47
2022/08/01 04:42:24;;;;;;;5.65;3.20;;;27.10;1.00;;;;;;5110586;28;20092;-47
2022/08/01 04:44:50;;;;;;;6.57;2.78;;;27.20;1.00;;;;;;5112531;28;20107;-45
2022/08/01 04:47:17;;;;;;;4.32;3.22;;;27.10;1.00;;;;;;5111201;28;20338;-44
2022/08/01 04:49:45;;;;;;;4.45;2.83;;;27.10;1.00;;;;;;5111522;28;20038;-45
2022/08/01 04:52:11;;;;;;;4.10;2.80;;;27.10;1.00;;;;;;5111474;28;20033;-44
2022/08/01 04:54:37;;;;;;;4.15;2.58;;;27.10;1.00;;;;;;5112235;28;20028;-45
2022/08/01 04:57:04;;;;;;;3.13;2.28;;;27.10;1.00;;;;;;5111631;28;20422;-47
2022/08/01 04:59:40;;;;;;;3.13;2.80;;;27.10;1.00;;;;;;5112527;28;20024;-45
2022/08/01 05:02:07;;;;;;;3.42;2.67;;;27.10;1.00;;;;;;5093496;28;20023;-48
2022/08/01 05:04:33;;;;;;;2.58;2.38;;;27.10;1.00;;;;;;5111412;28;20031;-45
2022/08/01 05:06:59;;;;;;;5.03;2.60;;;27.10;1.00;;;;;;5111767;28;20024;-46
2022/08/01 05:09:25;;;;;;;4.88;2.53;;;27.00;1.00;;;;;;5112296;28;20346;-45
2022/08/01 05:11:50;;;;;;;4.07;2.60;;;27.10;1.00;;;;;;5111467;28;20077;-45
2022/08/01 05:14:16;;;;;;;2.88;2.47;;;27.10;1.00;;;;;;5111794;28;20492;-50
2022/08/01 05:16:42;;;;;;;3.13;2.67;;;27.10;1.00;;;;;;5111452;28;20092;-47
2022/08/01 05:19:08;;;;;;;4.03;2.65;;;27.10;1.00;;;;;;5112295;28;20032;-49
2022/08/01 05:21:34;;;;;;;3.53;2.53;;;27.10;1.00;;;;;;5111495;28;20027;-45
2022/08/01 05:23:59;;;;;;;3.25;2.55;;;27.10;1.00;;;;;;5111828;28;20039;-45
2022/08/01 05:26:25;;;;;;;2.53;2.30;;;27.10;1.00;;;;;;5111036;28;20027;-44
2022/08/01 05:28:51;;;;;;;3.55;2.58;;;27.10;1.00;;;;;;5111864;28;20098;-47
2022/08/01 05:31:16;;;;;;;3.45;2.40;;;27.10;1.00;;;;;;5111170;28;20028;-45
2022/08/01 05:33:42;;;;;;;3.08;2.50;;;27.10;1.00;;;;;;5112039;28;20035;-46
2022/08/01 05:36:07;;;;;;;2.97;2.67;;;27.20;1.00;;;;;;5111141;28;20024;-47
2022/08/01 05:38:33;;;;;;;3.78;2.40;;;27.20;1.00;;;;;;5111854;28;20062;-46
2022/08/01 05:40:59;;;;;;;3.88;2.97;;;27.20;1.00;;;;;;5110658;28;20361;-45
2022/08/01 05:43:24;;;;;;;3.90;2.72;;;27.20;1.00;;;;;;5111513;28;20357;-48
2022/08/01 05:45:50;;;;;;;2.67;2.47;;;27.20;1.00;;;;;;5110824;28;20070;-45
2022/08/01 05:48:16;;;;;;;5.38;2.42;;;27.20;1.00;;;;;;5110914;28;20062;-45
2022/08/01 05:50:42;;;;;;;6.63;3.05;;;27.20;1.00;;;;;;5111639;28;20084;-46
2022/08/01 05:53:07;;;;;;;3.53;2.45;;;27.10;1.00;;;;;;5111069;28;20036;-45
2022/08/01 05:55:34;;;;;;;4.18;2.90;;;27.20;1.00;;;;;;5111788;28;20035;-49
2022/08/01 05:57:59;;;;;;;3.67;2.58;;;27.20;1.00;;;;;;5110734;28;20012;-50
2022/08/01 06:00:25;;;;;;;3.17;2.97;;;27.20;1.00;;;;;;5111635;28;20080;-44
2022/08/01 06:02:51;;;;;;;3.05;2.78;;;27.10;1.00;;;;;;5111003;28;20051;-46
2022/08/01 06:05:16;;;;;;;3.63;2.90;;;27.20;1.00;;;;;;5093325;28;20028;-44
2022/08/01 06:07:51;;;;;;;2.90;2.70;;;27.20;1.00;;;;;;5110825;28;20039;-44
2022/08/01 06:10:17;;;;;;;4.13;2.60;;;27.30;1.00;;;;;;5093240;28;20031;-45
2022/08/01 06:12:42;;;;;;;3.67;2.75;;;27.30;1.00;;;;;;5110812;28;20031;-45
2022/08/01 06:15:09;;;;;;;5.00;2.90;;;27.30;1.00;;;;;;5110465;28;20031;-46
2022/08/01 06:17:35;;;;;;;3.28;2.85;;;27.30;1.00;;;;;;5110716;28;20042;-45
2022/08/01 06:20:00;;;;;;;6.20;3.38;;;27.30;1.00;;;;;;5111380;28;20015;-47
2022/08/01 06:22:26;;;;;;;3.65;3.20;;;27.30;1.00;;;;;;5092519;28;20427;-45
2022/08/01 06:24:52;;;;;;;6.47;3.53;;;27.30;1.00;;;;;;5111244;28;20500;-46
2022/08/01 06:27:17;;;;;;;5.60;3.88;;;27.40;1.00;;;;;;5107497;28;20381;-45
2022/08/01 06:29:43;;;;;;;5.55;3.30;;;27.40;1.00;;;;;;5095773;28;20451;-45
2022/08/01 06:32:09;;;;;;;5.78;3.72;;;27.40;1.00;;;;;;5110746;28;20114;-44
2022/08/01 06:34:35;;;;;;;5.00;3.88;;;27.40;1.00;;;;;;5111442;28;20039;-45
2022/08/01 06:37:01;;;;;;;3.78;3.10;;;27.30;1.00;;;;;;5098284;28;20024;-45
2022/08/01 06:39:26;;;;;;;3.33;3.03;;;27.30;1.00;;;;;;5112839;28;20057;-45
2022/08/01 06:41:52;;;;;;;3.60;3.30;;;27.40;1.00;;;;;;5114148;28;20052;-45
2022/08/01 06:44:18;;;;;;;3.70;3.03;;;27.40;1.00;;;;;;5114898;28;20047;-45
2022/08/01 06:46:43;;;;;;;6.35;3.83;;;27.40;1.00;;;;;;5114358;28;20027;-45
2022/08/01 06:49:09;;;;;;;10.05;3.15;;;27.40;1.00;;;;;;5114735;28;20114;-45
2022/08/01 06:51:35;;;;;;;2.97;2.72;;;27.50;1.00;;;;;;5113700;28;20434;-46
2022/08/01 06:54:00;;;;;;;4.72;3.13;;;27.50;1.00;;;;;;5114693;28;20042;-45
2022/08/01 06:56:26;;;;;;;4.60;2.92;;;27.50;1.00;;;;;;5113287;28;20068;-45
2022/08/01 06:58:52;;;;;;;4.43;2.65;;;27.50;1.00;;;;;;5114603;28;20032;-44
2022/08/01 07:01:17;;;;;;;3.38;2.40;;;27.50;1.00;;;;;;5113600;28;20032;-44
2022/08/01 07:03:43;;;;;;;2.97;2.70;;;27.50;1.00;;;;;;5102685;28;20177;-45
2022/08/01 07:06:09;;;;;;;2.90;2.67;;;27.60;1.00;;;;;;5095734;28;20028;-46
2022/08/01 07:08:35;;;;;;;4.65;2.35;;;27.60;1.00;;;;;;5113690;28;20050;-47
2022/08/01 07:11:01;;;;;;;4.22;3.10;;;27.60;1.00;;;;;;5095332;28;20362;-45
2022/08/01 07:13:27;;;;;;;3.75;2.60;;;27.60;1.00;;;;;;5112207;28;20153;-45
2022/08/01 07:15:53;;;;;;;3.40;2.55;;;27.60;1.00;;;;;;5114639;28;20374;-45
2022/08/01 07:18:19;;;;;;;5.32;2.67;;;27.60;1.00;;;;;;5113241;28;20036;-45
2022/08/01 07:20:45;;;;;;;3.08;2.67;;;27.60;1.00;;;;;;5114184;28;20045;-47
2022/08/01 07:23:12;;;;;;;4.55;2.75;;;27.70;1.00;;;;;;5095367;28;20073;-45
2022/08/01 07:25:38;;;;;;;5.57;3.08;;;27.70;1.00;;;;;;5114485;28;20034;-47
2022/08/01 07:28:04;;;;;;;4.22;2.78;;;27.80;1.00;;;;;;5113430;28;20058;-46
2022/08/01 07:30:29;;;;;;;2.70;2.50;;;27.70;1.00;;;;;;5095534;28;20023;-46
2022/08/01 07:32:55;;;;;;;4.95;2.78;;;27.80;1.00;;;;;;5113458;28;20031;-45
2022/08/01 07:35:21;;;;;;;7.78;3.10;;;27.70;1.00;;;;;;5113009;28;20047;-47
2022/08/01 07:37:47;;;;;;;4.32;2.40;;;27.70;1.00;;;;;;5113019;28;20024;-44
2022/08/01 07:40:13;;;;;;;4.05;3.00;;;27.80;1.00;;;;;;5113796;28;20469;-46
2022/08/01 07:42:43;;;;;;;6.57;2.97;;;27.80;1.00;;;;;;5112030;28;20051;-49
2022/08/01 07:45:09;;;;;;;3.20;2.92;;;27.90;1.00;;;;;;5113767;28;20110;-45
2022/08/01 07:47:35;;;;;;;4.47;3.05;;;28.00;1.00;;;;;;5112627;28;20497;-44
2022/08/01 07:50:02;;;;;;;5.60;3.30;;;28.00;1.00;;;;;;5113555;28;20127;-45
2022/08/01 07:52:27;;;;;;;4.60;3.45;;;28.00;1.00;;;;;;5112522;28;20030;-45
2022/08/01 07:54:53;;;;;;;4.95;3.35;;;28.00;1.00;;;;;;5113422;28;20036;-47
2022/08/01 07:57:19;;;;;;;6.10;3.65;;;28.10;1.00;;;;;;5112697;28;20051;-47
2022/08/01 07:59:44;;;;;;;7.20;3.90;;;28.10;1.00;;;;;;5113551;28;20106;-48
2022/08/01 08:02:10;;;;;;;4.88;3.05;;;28.10;1.00;;;;;;5112698;28;20020;-45
2022/08/01 08:04:36;;;;;;;5.90;3.20;;;28.20;1.00;;;;;;5113207;28;20016;-45
2022/08/01 08:07:26;;;;;;;6.10;3.38;;;28.20;1.00;;;;;;5111433;28;20111;-46
2022/08/01 08:09:52;;;;;;;6.03;3.83;;;28.20;1.00;;;;;;5113084;28;20034;-46
2022/08/01 08:12:18;;;;;;;3.50;3.20;;;28.20;1.00;;;;;;5111465;28;20099;-45
2022/08/01 08:14:43;;;;;;;6.45;3.65;;;28.30;1.00;;;;;;5104485;28;20130;-45
2022/08/01 08:17:09;;;;;;;6.43;3.92;;;28.30;1.00;;;;;;5112181;28;20038;-47
2022/08/01 08:19:36;;;;;;;6.68;4.40;;;28.40;1.00;;;;;;5112872;28;20119;-45
2022/08/01 08:22:02;;;;;;;5.95;3.60;;;28.40;1.00;;;;;;5108768;28;20045;-45
2022/08/01 08:24:28;;;;;;;6.00;3.50;;;28.40;1.00;;;;;;5112294;28;20441;-45
2022/08/01 08:26:59;;;;;;;5.90;3.67;;;28.40;1.00;;;;;;5112041;28;20023;-44
2022/08/01 08:29:26;;;;;;;5.25;4.10;;;28.50;1.00;;;;;;5111151;28;20023;-45
2022/08/01 08:31:53;;;;;;;5.15;3.53;;;28.50;1.00;;;;;;5110695;28;20015;-44
2022/08/01 08:34:19;;;;;;;5.47;4.07;;;28.50;1.00;;;;;;5112295;28;20042;-45
2022/08/01 08:36:45;;;;;;;5.57;4.30;;;28.50;1.00;;;;;;5111953;28;20031;-47
2022/08/01 08:39:10;;;;;;;5.82;4.60;;;28.50;1.00;;;;;;5098118;28;20496;-47
2022/08/01 08:41:36;;;;;;;4.90;4.50;;;28.60;1.00;;;;;;5109513;28;20036;-45
2022/08/01 08:44:07;;;;;;;4.28;3.88;;;28.60;1.00;;;;;;5111558;28;20139;-45
2022/08/01 08:46:33;;;;;;;3.58;3.13;;;28.60;1.00;;;;;;5094342;28;20027;-45
2022/08/01 08:49:00;;;;;;;7.30;3.58;;;28.70;1.00;;;;;;5110946;28;20023;-45
2022/08/01 08:51:27;;;;;;;6.43;3.55;;;28.70;1.00;;;;;;5112498;28;20540;-44
2022/08/01 08:53:57;;;;;;;5.85;3.80;;;28.70;1.00;;;;;;5109963;28;20097;-45
2022/08/01 08:56:24;;;;;;;7.25;4.03;;;28.80;1.00;;;;;;5098672;28;20457;-45
2022/08/01 08:58:51;;;;;;;5.75;4.05;;;28.80;1.00;;;;;;5111486;28;20027;-46
2022/08/01 09:01:17;;;;;;;6.65;4.50;;;28.80;1.00;;;;;;5110074;28;20080;-47
2022/08/01 09:03:43;;;;;;;5.28;4.03;;;28.90;1.00;;;;;;5108255;28;20038;-46
2022/08/01 09:06:11;;;;;;;6.00;3.88;;;28.90;1.00;;;;;;5098203;28;20484;-47
2022/08/01 09:08:36;;;;;;;6.32;4.80;;;28.90;1.00;;;;;;5107546;28;20406;-47
2022/08/01 09:11:03;;;;;;;5.43;4.50;;;28.90;1.00;;;;;;5111095;28;20150;-47
2022/08/01 09:13:29;;;;;;;5.28;4.47;;;29.00;1.00;;;;;;5104791;28;20028;-45
2022/08/01 09:15:58;;;;;;;7.38;4.05;;;29.10;1.00;;;;;;5111514;28;20032;-46
2022/08/01 09:18:43;;;;;;;6.28;3.88;;;29.10;1.00;;;;;;5111312;28;20019;-45
2022/08/01 09:21:10;;;;;;;7.20;4.43;;;29.20;1.00;;;;;;5112006;28;20029;-48
2022/08/01 09:23:42;;;;;;;6.45;4.47;;;29.20;1.00;;;;;;5105732;28;20473;-46
2022/08/01 09:26:09;;;;;;;6.10;4.38;;;29.20;1.00;;;;;;5111310;28;20051;-45
2022/08/01 09:28:35;;;;;;;7.78;4.65;;;29.30;1.00;;;;;;5080241;28;20087;-46
2022/08/01 09:31:12;;;;;;;4.68;3.47;;;29.20;1.00;;;;;;5103104;28;20062;-45
2022/08/01 09:33:53;;;;;;;5.43;3.80;;;29.30;1.00;;;;;;5111204;28;20134;-46
2022/08/01 09:36:22;;;;;;;6.47;4.43;;;29.40;1.00;;;;;;5112109;28;20030;-47
2022/08/01 09:38:49;;;;;;;11.40;4.85;;;29.50;1.00;;;;;;5098845;28;20020;-45
2022/08/01 09:41:14;;;;;;;5.82;3.85;;;29.40;1.00;;;;;;5093444;28;20036;-47
2022/08/01 09:43:48;;;;;;;4.97;4.47;;;29.50;1.00;;;;;;5111133;28;20477;-48
2022/08/01 09:46:13;;;;;;;8.35;4.45;;;29.60;1.00;;;;;;5098528;28;20028;-45
2022/08/01 09:48:54;;;;;;;5.68;4.05;;;29.60;1.00;;;;;;5103961;28;20478;-48
2022/08/01 09:51:38;;;;;;;4.97;3.35;;;29.60;1.00;;;;;;5107793;28;20031;-47
2022/08/01 09:54:06;;;;;;;8.82;4.00;;;29.60;1.00;;;;;;5110873;28;20424;-48
2022/08/01 09:56:42;;;;;;;8.90;4.20;;;29.70;1.00;;;;;;5111665;28;20020;-46
2022/08/01 09:59:09;;;;;;;6.60;3.72;;;29.80;1.00;;;;;;5108083;28;20039;-45
2022/08/01 10:01:46;;;;;;;4.82;3.70;;;29.70;1.00;;;;;;5111352;28;20058;-45
2022/08/01 10:04:18;;;;;;;5.18;3.33;;;29.80;1.00;;;;;;5100537;28;20476;-46
2022/08/01 10:06:49;;;;;;;4.70;4.15;;;29.90;1.00;;;;;;5110962;28;20011;-49
2022/08/01 10:09:15;;;;;;;7.22;3.42;;;29.90;1.00;;;;;;5101691;28;20023;-44
2022/08/01 10:11:42;;;;;;;5.18;3.33;;;30.00;1.00;;;;;;5111423;28;20020;-45
2022/08/01 10:14:08;;;;;;;4.80;3.08;;;30.00;1.00;;;;;;5090453;28;20565;-45
2022/08/01 10:16:35;;;;;;;4.88;2.97;;;30.10;1.00;;;;;;5082895;28;20103;-45
2022/08/01 10:19:04;;;;;;;5.80;3.33;;;30.20;1.00;;;;;;5114621;28;20509;-45
2022/08/01 10:21:33;;;;;;;3.88;3.33;;;30.20;1.00;;;;;;5115426;28;20032;-45
2022/08/01 10:24:02;;;;;;;2.92;2.53;;;30.30;1.00;;;;;;5102324;28;20028;-44
2022/08/01 10:26:31;;;;;;;6.80;3.10;;;30.30;1.00;;;;;;5115226;28;20111;-44
2022/08/01 10:28:57;;;;;;;4.45;3.58;;;30.30;1.00;;;;;;5114328;28;20109;-45
2022/08/01 10:31:23;;;;;;;7.82;3.17;;;30.30;1.00;;;;;;5115224;28;20055;-45
2022/08/01 10:33:50;;;;;;;3.75;2.83;;;30.40;1.00;;;;;;5111577;28;20066;-47
2022/08/01 10:36:20;;;;;;;6.13;3.70;;;30.50;1.00;;;;;;5114929;28;20019;-45
2022/08/01 10:38:46;;;;;;;6.63;3.65;;;30.60;1.00;;;;;;5113497;28;20057;-45
2022/08/01 10:41:15;;;;;;;4.55;3.40;;;30.60;1.00;;;;;;5115081;28;20019;-45
2022/08/01 10:43:40;;;;;;;4.05;3.00;;;30.60;1.00;;;;;;5093872;28;20082;-46
2022/08/01 10:46:07;;;;;;;7.20;3.58;;;30.60;1.00;;;;;;5094916;28;20063;-44
2022/08/01 10:48:56;;;;;;;4.18;3.00;;;30.70;1.00;;;;;;5093935;28;20167;-44
2022/08/01 10:51:23;;;;;;;3.15;2.85;;;30.80;1.00;;;;;;5074779;28;20371;-45
2022/08/01 10:53:53;;;;;;;4.32;2.20;;;30.90;1.00;;;;;;5076039;28;20046;-45
2022/08/01 10:56:21;;;;;;;3.22;2.50;;;31.00;1.00;;;;;;5080923;28;20178;-47
2022/08/01 10:58:48;;;;;;;2.53;2.28;;;31.20;1.00;;;;;;5093550;28;20028;-47
2022/08/01 11:01:27;;;;;;;2.38;2.13;;;31.30;1.00;;;;;;5094291;28;20024;-45
2022/08/01 11:04:11;;;;;;;2.53;2.33;;;31.30;1.00;;;;;;5075386;28;20020;-45
2022/08/01 11:06:46;;;;;;;2.05;1.95;;;31.20;1.00;;;;;;5075164;28;20466;-44
2022/08/01 11:09:15;;;;;;;2.38;2.17;;;31.30;1.00;;;;;;5093366;28;20143;-44
2022/08/01 11:12:00;;;;;;;2.10;1.90;;;31.50;1.00;;;;;;5093921;28;20020;-44
2022/08/01 11:14:26;;;;;;;2.72;2.53;;;31.50;1.00;;;;;;5092934;28;20121;-46
2022/08/01 11:16:52;;;;;;;3.17;2.28;;;31.50;1.00;;;;;;5093885;28;20054;-44
2022/08/01 11:19:17;;;;;;;3.75;2.38;;;31.50;1.00;;;;;;5092461;28;20382;-44
2022/08/01 11:21:52;;;;;;;3.35;2.80;;;31.60;1.00;;;;;;5093728;28;20024;-44
2022/08/01 11:24:46;;;;;;;3.97;3.05;;;31.80;1.00;;;;;;5092755;28;20102;-44
2022/08/01 11:27:17;;;;;;;3.60;2.70;;;31.90;1.00;;;;;;5079975;28;20042;-45
2022/08/01 11:29:43;;;;;;;4.35;2.92;;;32.00;1.00;;;;;;5075296;28;20480;-48
2022/08/01 11:32:26;;;;;;;3.45;3.15;;;32.10;1.00;;;;;;5093741;28;20043;-47
2022/08/01 11:34:54;;;;;;;5.00;3.13;;;32.20;1.00;;;;;;5092346;28;20486;-45
2022/08/01 11:37:27;;;;;;;3.17;2.92;;;32.20;1.00;;;;;;5079167;28;20016;-44
2022/08/01 11:40:15;;;;;;;3.90;3.13;;;32.40;1.00;;;;;;5074883;28;20055;-49
2022/08/01 11:42:41;;;;;;;3.78;3.28;;;32.40;1.00;;;;;;5093142;28;20039;-49
2022/08/01 11:45:09;;;;;;;4.78;3.47;;;32.60;1.00;;;;;;5095133;28;20020;-45
2022/08/01 11:47:49;;;;;;;3.78;3.45;;;32.90;1.00;;;;;;5098875;28;20465;-45
2022/08/01 11:50:32;;;;;;;4.50;3.45;;;33.10;1.00;;;;;;5107045;28;20066;-50
2022/08/01 11:53:00;;;;;;;3.78;3.40;;;33.30;1.00;;;;;;5112712;28;20027;-47
2022/08/01 11:55:28;;;;;;;4.25;3.85;;;33.80;1.00;;;;;;5113543;28;20054;-45
2022/08/01 11:58:05;;;;;;;3.22;2.92;;;34.30;1.00;;;;;;5112439;28;20040;-46
2022/08/01 12:00:31;;;;;;;5.15;3.80;;;34.70;1.00;;;;;;5113542;28;20027;-44
2022/08/01 12:03:02;;;;;;;4.75;3.65;;;35.20;1.00;;;;;;5111549;28;20019;-45
2022/08/01 12:05:30;;;;;;;3.75;3.45;;;35.50;1.00;;;;;;5112582;28;20114;-45
2022/08/01 12:07:56;;;;;;;5.55;3.50;;;35.80;1.00;;;;;;5112198;28;20063;-45
2022/08/01 12:10:37;;;;;;;3.50;3.28;;;36.70;1.00;;;;;;5113269;28;20027;-45
2022/08/01 12:13:05;;;;;;;3.67;3.47;;;38.60;1.00;;;;;;5112087;28;20053;-47
2022/08/01 12:15:37;;;;;;;3.33;3.03;;;39.70;1.00;;;;;;5095008;28;20027;-47
2022/08/01 12:18:05;;;;;;;4.57;3.35;;;40.80;1.00;;;;;;5111480;28;20020;-46
2022/08/01 12:20:33;;;;;;;3.25;3.15;;;42.10;1.00;;;;;;5113184;28;20035;-45
2022/08/01 12:23:07;;;;;;;3.92;3.63;;;44.70;1.00;;;;;;5111994;28;20023;-45
2022/08/01 12:25:33;;;;;;;4.50;4.10;;;46.10;1.00;;;;;;5099686;28;20019;-45
2022/08/01 12:28:01;;;;;;;5.18;4.00;;;46.80;1.00;;;;;;5112221;28;20068;-45
2022/08/01 12:30:28;;;;;;;4.45;4.05;;;46.80;1.00;;;;;;5112442;28;20106;-45
2022/08/01 12:32:54;;;;;;;4.28;4.00;;;45.70;1.00;;;;;;5112670;28;20040;-45
2022/08/01 12:35:25;;;;;;;4.03;3.83;;;44.50;1.00;;;;;;5112623;28;20100;-46
2022/08/01 12:37:55;;;;;;;4.57;4.38;;;42.80;1.00;;;;;;5111784;28;20020;-45
2022/08/01 12:40:27;;;;;;;5.00;4.68;;;41.40;1.00;;;;;;5108991;28;20488;-46
2022/08/01 12:42:55;;;;;;;4.50;4.22;;;41.00;1.00;;;;;;5094046;28;20354;-45
2022/08/01 12:45:26;;;;;;;5.30;4.43;;;40.10;1.00;;;;;;5108100;28;20059;-46
2022/08/01 12:47:53;;;;;;;5.18;4.88;;;40.20;1.00;;;;;;5111802;28;20023;-47
2022/08/01 12:50:22;;;;;;;5.18;4.78;;;40.10;1.00;;;;;;5093557;28;20024;-45
2022/08/01 12:52:48;;;;;;;4.93;4.63;;;39.90;1.00;;;;;;5112477;28;20023;-49
2022/08/01 12:55:19;;;;;;;4.60;4.40;;;39.60;1.00;;;;;;5111671;28;20043;-48
2022/08/01 12:57:50;;;;;;;5.82;5.47;;;39.50;1.00;;;;;;5094119;28;20377;-46
2022/08/01 13:00:24;;;;;;;5.57;5.13;;;39.60;1.00;;;;;;5101568;28;20583;-45
2022/08/01 13:03:05;;;;;;;5.13;4.80;;;40.10;1.00;;;;;;5107866;28;20091;-46
2022/08/01 13:05:54;;;;;;;4.63;4.35;;;40.40;1.00;;;;;;5110346;28;20515;-46
2022/08/01 13:08:21;;;;;;;4.93;4.63;;;40.60;1.00;;;;;;5110701;28;20016;-47